Airfield :
LOGIN :

Register | Disclaimer

   EN    FR    IT 

 










Legend :    VFR   Marginal VFR   IFR   Intensive IFR   Very Intensive IFR
Visi :
Ceiling :
>= 8 km
>= 3000ft
5 to 8 km
1000 to 3000 ft
1500m to 5 km
500 to 1000 ft
800 to 1500m
200 to 500 ft
< 800m
< 200 ft
Symbols :   Thunderstorms  Fog  Heavy snow  Heavy precipitations  Wind > 20 kt
SIGMETs :     Misc.  Thunderstorms  Icing  Turbulence  Mountain Waves  Volcanic Ashes







- Airport Elevation : 247 ft
- IATA code : BLL


EKBI - Billund

CURRENT METAR :
  • 251350Z AUTO 07013KT 040V110 9999NDV NCD 24/06 Q1025

EXPIRED METARs :
  • 251320Z AUTO 09012KT 060V120 9999NDV NCD 24/06 Q1025
  • 251250Z AUTO 07011G21KT 040V110 9999NDV NCD 23/08 Q1025
  • 251220Z AUTO 08009KT 030V120 9999NDV NCD 24/07 Q1025
  • 251150Z AUTO 08012KT 050V110 9999NDV NCD 23/06 Q1026
  • 251120Z AUTO 09010KT 050V130 9999NDV NCD 23/06 Q1026

TAF TAF EKBI
Valid from the 25 at 12:00 until the 26 at 12:00 UTC


251114Z 2512/2612 08012KT CAVOK
No reported NOTAMs for that airfield.



MET'MAP, your aeronautical weather chart ! - Copyright ORBIFLY December 2007 - Disclaimer

ORBIFLY MET'MAP TEAM :

Programming & Development : Alexandra Zaïnal
Concept & Development : Baudouin d'Aumeries
Co-Development & Prog : Marc-Olivier Méhu
Technical & hardware support : Manuel Goepfert

Contact : metmap@orbifly.com




SOURCES & CREDITS :

   NOAA